Time;durP1;ratioP1;P1;durP2;ratioP2;P2;SDS_P1;SDS_P2;PMS_P1;PMS_P2;Temp;Humidity;BMP_temperature;BMP_pressure;BME280_temperature;BME280_humidity;BME280_pressure;Samples;Min_cycle;Max_cycle;Signal;HPM_P1;HPM_P2
2022/08/25 00:00:47;;;;;;;;;;;;;;;24.74;60.07;101455.50;7280705;19;152355;-62
2022/08/25 00:03:15;;;;;;;;;;;;;;;24.78;59.76;101453.69;7279635;19;153514;-62
2022/08/25 00:05:42;;;;;;;;;;;;;;;24.76;60.45;101449.50;7275888;19;152040;-62
2022/08/25 00:08:08;;;;;;;;;;;;;;;24.74;60.00;101443.38;7288414;19;153574;-62
2022/08/25 00:10:36;;;;;;;;;;;;;;;24.73;60.22;101453.81;7282216;19;152075;-62
2022/08/25 00:13:03;;;;;;;;;;;;;;;24.76;60.08;101439.03;7281104;19;152701;-63
2022/08/25 00:15:31;;;;;;;;;;;;;;;24.77;60.38;101432.22;7280163;19;154427;-62
2022/08/25 00:17:58;;;;;;;;;;;;;;;24.74;60.41;101426.41;7281013;19;152151;-62
2022/08/25 00:20:26;;;;;;;;;;;;;;;24.72;60.56;101423.06;7277730;19;153677;-62
2022/08/25 00:22:54;;;;;;;;;;;;;;;24.72;60.78;101421.06;7279632;19;154138;-63
2022/08/25 00:25:22;;;;;;;;;;;;;;;24.71;60.71;101415.75;7287672;19;152982;-63
2022/08/25 00:27:49;;;;;;;;;;;;;;;24.71;60.65;101413.75;7287584;19;153459;-62
2022/08/25 00:30:16;;;;;;;;;;;;;;;24.70;60.54;101403.63;7294975;19;154121;-62
2022/08/25 00:32:44;;;;;;;;;;;;;;;24.74;61.15;101415.09;7287800;19;153820;-62
2022/08/25 00:35:23;;;;;;;;;;;;;;;24.76;61.47;101413.59;7283823;19;153278;-62
2022/08/25 00:37:49;;;;;;;;;;;;;;;24.75;61.93;101417.59;7284823;19;152726;-62
2022/08/25 00:40:16;;;;;;;;;;;;;;;24.74;61.70;101412.28;7285187;19;153444;-62
2022/08/25 00:42:43;;;;;;;;;;;;;;;24.71;62.40;101410.91;7283507;19;154374;-63
2022/08/25 00:45:10;;;;;;;;;;;;;;;24.72;61.85;101409.75;7287883;19;152323;-63
2022/08/25 00:47:36;;;;;;;;;;;;;;;24.69;61.66;101410.44;7286707;19;152113;-62
2022/08/25 00:50:07;;;;;;;;;;;;;;;24.72;61.67;101408.94;7284279;19;153269;-62
2022/08/25 00:52:39;;;;;;;;;;;;;;;24.76;62.08;101413.59;7294155;19;151732;-62
2022/08/25 00:55:20;;;;;;;;;;;;;;;24.74;62.27;101413.13;7285828;19;152808;-62
2022/08/25 00:57:51;;;;;;;;;;;;;;;24.78;61.90;101414.13;7287159;19;152072;-62
2022/08/25 01:00:21;;;;;;;;;;;;;;;24.74;61.61;101415.09;7286782;19;153860;-63
2022/08/25 01:02:47;;;;;;;;;;;;;;;24.78;62.28;101419.78;7286018;19;153941;-62
2022/08/25 01:05:15;;;;;;;;;;;;;;;24.85;62.17;101419.28;7279318;19;153375;-62
2022/08/25 01:07:42;;;;;;;;;;;;;;;24.86;62.12;101417.28;7287014;19;154845;-62
2022/08/25 01:10:12;;;;;;;;;;;;;;;24.78;62.10;101416.94;7286475;19;153270;-62
2022/08/25 01:12:39;;;;;;;;;;;;;;;24.79;62.89;101410.16;7287873;19;152618;-62
2022/08/25 01:15:07;;;;;;;;;;;;;;;24.77;62.18;101409.63;7290420;19;152674;-62
2022/08/25 01:17:37;;;;;;;;;;;;;;;24.72;62.30;101415.41;7288311;19;152123;-63
2022/08/25 01:20:04;;;;;;;;;;;;;;;24.76;62.40;101407.13;7281505;19;152985;-62
2022/08/25 01:22:31;;;;;;;;;;;;;;;24.74;61.56;101406.63;7285363;19;153113;-62
2022/08/25 01:25:03;;;;;;;;;;;;;;;24.75;62.67;101411.97;7286762;19;152822;-62
2022/08/25 01:27:30;;;;;;;;;;;;;;;24.74;62.32;101409.44;7285676;19;152720;-62
2022/08/25 01:29:57;;;;;;;;;;;;;;;24.70;62.33;101405.59;7283017;19;153749;-62
2022/08/25 01:32:24;;;;;;;;;;;;;;;24.74;63.38;101392.50;7287310;19;152295;-62
2022/08/25 01:34:50;;;;;;;;;;;;;;;24.70;62.77;101371.69;7285367;19;156391;-62
2022/08/25 01:37:18;;;;;;;;;;;;;;;24.74;63.08;101364.22;7282763;19;152896;-63
2022/08/25 01:39:44;;;;;;;;;;;;;;;24.88;63.55;101364.97;7281716;19;153556;-62
2022/08/25 01:42:12;;;;;;;;;;;;;;;24.78;63.00;101359.59;7284628;19;154013;-62
2022/08/25 01:44:41;;;;;;;;;;;;;;;24.73;62.39;101354.06;7285359;19;153155;-62
2022/08/25 01:47:08;;;;;;;;;;;;;;;24.71;62.85;101362.06;7287131;19;152654;-63
2022/08/25 01:49:35;;;;;;;;;;;;;;;24.74;64.44;101370.72;7280198;19;153244;-62
2022/08/25 01:52:05;;;;;;;;;;;;;;;24.85;63.83;101361.94;7285089;19;153168;-62
2022/08/25 01:54:32;;;;;;;;;;;;;;;24.78;64.67;101376.53;7285276;19;152941;-63
2022/08/25 01:56:58;;;;;;;;;;;;;;;24.75;64.00;101380.03;7291177;19;152840;-62
2022/08/25 01:59:26;;;;;;;;;;;;;;;24.80;64.12;101380.69;7284192;19;153142;-63
2022/08/25 02:01:52;;;;;;;;;;;;;;;24.74;62.96;101376.38;7285441;19;152798;-63
2022/08/25 02:04:28;;;;;;;;;;;;;;;24.72;63.73;101372.19;7281695;19;152206;-62
2022/08/25 02:06:54;;;;;;;;;;;;;;;24.75;64.38;101383.69;7286685;19;153682;-64
2022/08/25 02:09:21;;;;;;;;;;;;;;;24.72;63.83;101386.31;7283148;19;153967;-63
2022/08/25 02:11:48;;;;;;;;;;;;;;;24.70;63.27;101391.47;7287586;19;152235;-63
2022/08/25 02:14:15;;;;;;;;;;;;;;;24.68;63.20;101379.66;7284284;19;153087;-63
2022/08/25 02:16:44;;;;;;;;;;;;;;;24.72;63.53;101378.69;7283953;19;153562;-62
2022/08/25 02:19:11;;;;;;;;;;;;;;;24.72;64.47;101369.38;7289915;19;152127;-62
2022/08/25 02:21:38;;;;;;;;;;;;;;;24.70;63.79;101366.88;7283015;19;153920;-62
2022/08/25 02:24:05;;;;;;;;;;;;;;;24.71;64.16;101373.38;7283937;19;152073;-63
2022/08/25 02:26:32;;;;;;;;;;;;;;;24.68;63.80;101374.84;7285299;19;153204;-62
2022/08/25 02:29:00;;;;;;;;;;;;;;;24.68;64.00;101377.66;7283255;19;153947;-62
2022/08/25 02:31:27;;;;;;;;;;;;;;;24.69;64.12;101385.00;7282965;19;152169;-62
2022/08/25 02:33:54;;;;;;;;;;;;;;;24.69;63.34;101386.97;7282210;19;153410;-62
2022/08/25 02:36:22;;;;;;;;;;;;;;;24.67;63.62;101376.00;7282856;19;152242;-62
2022/08/25 02:38:49;;;;;;;;;;;;;;;24.70;63.31;101368.88;7282130;19;152061;-62
2022/08/25 02:41:18;;;;;;;;;;;;;;;24.69;63.92;101351.06;7290893;19;152132;-62
2022/08/25 02:43:47;;;;;;;;;;;;;;;24.68;63.96;101363.53;7282820;19;152265;-62
2022/08/25 02:46:15;;;;;;;;;;;;;;;24.68;64.05;101372.00;7285159;19;153435;-62
2022/08/25 02:48:42;;;;;;;;;;;;;;;24.68;64.10;101382.47;7279807;19;153236;-63
2022/08/25 02:51:09;;;;;;;;;;;;;;;24.75;65.60;101395.00;7282153;19;152731;-63
2022/08/25 02:53:40;;;;;;;;;;;;;;;24.73;64.86;101397.31;7282324;19;152753;-62
2022/08/25 02:56:08;;;;;;;;;;;;;;;24.71;64.55;101393.16;7283194;19;153311;-62
2022/08/25 02:58:36;;;;;;;;;;;;;;;24.68;64.64;101369.19;7282053;19;152342;-62
2022/08/25 03:01:02;;;;;;;;;;;;;;;24.68;65.84;101357.03;7280130;19;153172;-62
2022/08/25 03:03:29;;;;;;;;;;;;;;;24.69;67.51;101356.72;7289170;19;154065;-62
2022/08/25 03:05:56;;;;;;;;;;;;;;;24.72;66.27;101366.53;7275622;19;153762;-61
2022/08/25 03:08:23;;;;;;;;;;;;;;;24.74;67.29;101361.41;7281613;19;153255;-62
2022/08/25 03:10:50;;;;;;;;;;;;;;;24.70;65.48;101340.63;7280585;19;154116;-62
2022/08/25 03:13:17;;;;;;;;;;;;;;;24.69;65.71;101330.47;7281603;19;153582;-62
2022/08/25 03:15:44;;;;;;;;;;;;;;;24.72;67.68;101324.97;7281783;19;154070;-62
2022/08/25 03:18:14;;;;;;;;;;;;;;;24.69;66.67;101330.47;7280204;19;152361;-63
2022/08/25 03:20:43;;;;;;;;;;;;;;;24.77;67.55;101329.66;7275906;19;152742;-62
2022/08/25 03:23:09;;;;;;;;;;;;;;;24.78;67.66;101336.97;7281512;19;154197;-62
2022/08/25 03:28:27;;;;;;;;;;;;;;;24.73;68.55;101328.63;7279838;19;153207;-63
2022/08/25 03:30:56;;;;;;;;;;;;;;;24.74;68.28;101327.47;7282916;19;152198;-63
2022/08/25 03:33:22;;;;;;;;;;;;;;;24.74;68.13;101324.66;7283165;19;153133;-62
2022/08/25 03:35:49;;;;;;;;;;;;;;;24.67;70.00;101324.28;7277516;19;153369;-62
2022/08/25 03:38:16;;;;;;;;;;;;;;;24.70;69.15;101315.19;7283029;19;155353;-62
2022/08/25 03:40:42;;;;;;;;;;;;;;;24.68;67.05;101306.19;7280029;19;153192;-62
2022/08/25 03:43:09;;;;;;;;;;;;;;;24.67;67.75;101301.69;7281074;19;153256;-63
2022/08/25 03:45:43;;;;;;;;;;;;;;;24.66;67.00;101306.53;7288151;19;154710;-62
2022/08/25 03:48:10;;;;;;;;;;;;;;;24.71;68.71;101308.38;7280837;19;154015;-62
2022/08/25 03:50:42;;;;;;;;;;;;;;;24.68;69.24;101314.66;7275906;19;152585;-62
2022/08/25 03:53:16;;;;;;;;;;;;;;;24.66;67.45;101317.84;7280393;19;153209;-63
2022/08/25 03:55:43;;;;;;;;;;;;;;;24.66;67.72;101333.94;7280302;19;154257;-62
2022/08/25 03:58:11;;;;;;;;;;;;;;;24.68;68.41;101343.75;7280729;19;152445;-63
2022/08/25 04:00:38;;;;;;;;;;;;;;;24.68;68.43;101362.69;7287004;19;154463;-62
2022/08/25 04:03:05;;;;;;;;;;;;;;;24.68;68.82;101366.38;7287353;19;153379;-63
2022/08/25 04:05:38;;;;;;;;;;;;;;;24.69;68.85;101379.34;7283951;19;152005;-63
2022/08/25 04:08:05;;;;;;;;;;;;;;;24.67;67.96;101364.69;7295155;19;153307;-62
2022/08/25 04:10:33;;;;;;;;;;;;;;;24.78;69.13;101351.94;7289090;19;155017;-62
2022/08/25 04:13:00;;;;;;;;;;;;;;;24.73;69.40;101352.09;7287045;19;154053;-62
2022/08/25 04:15:35;;;;;;;;;;;;;;;24.71;69.97;101342.28;7284593;19;153522;-62
2022/08/25 04:18:07;;;;;;;;;;;;;;;24.64;70.12;101322.97;7287971;19;152508;-62
2022/08/25 04:20:34;;;;;;;;;;;;;;;24.67;70.50;101307.34;7283520;19;152591;-62
2022/08/25 04:23:01;;;;;;;;;;;;;;;24.65;70.20;101312.50;7286340;19;154212;-63
2022/08/25 04:25:41;;;;;;;;;;;;;;;24.65;70.26;101310.50;7287876;19;153219;-62
2022/08/25 04:28:08;;;;;;;;;;;;;;;24.63;70.31;101311.97;7287192;19;154569;-62
2022/08/25 04:30:35;;;;;;;;;;;;;;;24.64;70.45;101313.66;7292351;19;154705;-63
2022/08/25 04:33:04;;;;;;;;;;;;;;;24.62;70.51;101321.63;7287779;19;154084;-62
2022/08/25 04:35:40;;;;;;;;;;;;;;;24.63;71.19;101323.28;7279590;19;154134;-62
2022/08/25 04:38:08;;;;;;;;;;;;;;;24.60;71.11;101326.78;7286395;19;152253;-62
2022/08/25 04:40:35;;;;;;;;;;;;;;;24.64;70.59;101333.44;7284366;19;153093;-62
2022/08/25 04:43:02;;;;;;;;;;;;;;;24.61;70.78;101322.78;7282615;19;154554;-62
2022/08/25 04:45:40;;;;;;;;;;;;;;;24.61;70.91;101326.47;7285037;19;151749;-62
2022/08/25 04:48:07;;;;;;;;;;;;;;;24.62;70.56;101341.41;7286899;19;153440;-62
2022/08/25 04:50:36;;;;;;;;;;;;;;;24.62;70.67;101355.56;7280773;19;153365;-62
2022/08/25 04:53:03;;;;;;;;;;;;;;;24.61;71.12;101349.06;7291731;19;151849;-63
2022/08/25 04:55:48;;;;;;;;;;;;;;;24.55;71.08;101347.53;7282772;19;153884;-63
2022/08/25 04:58:15;;;;;;;;;;;;;;;24.59;71.11;101364.66;7286001;19;151733;-62
2022/08/25 05:00:42;;;;;;;;;;;;;;;24.63;71.24;101380.63;7285924;19;153310;-62
2022/08/25 05:03:09;;;;;;;;;;;;;;;24.59;71.37;101398.56;7285806;19;154118;-63
2022/08/25 05:05:39;;;;;;;;;;;;;;;24.64;70.79;101404.06;7281937;19;153328;-63
2022/08/25 05:08:07;;;;;;;;;;;;;;;24.60;71.00;101403.91;7286058;19;152127;-62
2022/08/25 05:10:37;;;;;;;;;;;;;;;24.58;71.47;101428.81;7283402;19;154391;-62
2022/08/25 05:13:04;;;;;;;;;;;;;;;24.57;71.35;101472.38;7285965;19;152359;-62
2022/08/25 05:15:49;;;;;;;;;;;;;;;24.58;70.94;101481.66;7292555;19;153321;-61
2022/08/25 05:18:17;;;;;;;;;;;;;;;24.56;70.66;101473.53;7285920;19;152447;-62
2022/08/25 05:20:44;;;;;;;;;;;;;;;24.55;70.63;101466.19;7282031;19;152771;-62
2022/08/25 05:23:12;;;;;;;;;;;;;;;24.55;70.50;101468.19;7284353;19;153418;-63
2022/08/25 05:25:43;;;;;;;;;;;;;;;24.53;70.47;101457.19;7285925;19;152180;-63
2022/08/25 05:28:10;;;;;;;;;;;;;;;24.54;70.07;101449.56;7282880;19;155229;-61
2022/08/25 05:30:38;;;;;;;;;;;;;;;24.55;70.78;101437.09;7281701;19;153272;-62
2022/08/25 05:33:05;;;;;;;;;;;;;;;24.54;70.07;101433.44;7285685;19;152273;-62
2022/08/25 05:35:36;;;;;;;;;;;;;;;24.57;70.72;101444.13;7282627;19;152826;-62
2022/08/25 05:38:05;;;;;;;;;;;;;;;24.57;70.86;101440.44;7291925;19;152012;-62
2022/08/25 05:40:34;;;;;;;;;;;;;;;24.55;70.62;101434.28;7284590;19;153238;-62
2022/08/25 05:43:01;;;;;;;;;;;;;;;24.56;70.51;101439.63;7283719;19;152927;-62
2022/08/25 05:45:36;;;;;;;;;;;;;;;24.58;71.02;101425.97;7284119;19;152529;-62
2022/08/25 05:48:07;;;;;;;;;;;;;;;24.60;70.75;101423.69;7286575;19;151813;-62
2022/08/25 05:50:35;;;;;;;;;;;;;;;24.61;71.29;101413.22;7281426;19;154182;-62
2022/08/25 05:53:04;;;;;;;;;;;;;;;24.57;70.78;101413.03;7285230;19;152371;-62
2022/08/25 05:55:34;;;;;;;;;;;;;;;24.58;70.93;101399.72;7285152;19;153185;-62
2022/08/25 05:58:03;;;;;;;;;;;;;;;24.59;71.15;101385.28;7290883;19;152696;-62
2022/08/25 06:00:31;;;;;;;;;;;;;;;24.56;71.38;101383.09;7284164;19;153646;-62
2022/08/25 06:02:58;;;;;;;;;;;;;;;24.57;70.94;101384.78;7284337;19;153909;-62
2022/08/25 06:05:24;;;;;;;;;;;;;;;24.53;71.27;101397.06;7279340;19;152111;-62
2022/08/25 06:07:56;;;;;;;;;;;;;;;24.57;71.01;101396.09;7283779;19;152842;-62
2022/08/25 06:10:23;;;;;;;;;;;;;;;24.51;71.53;101402.19;7284521;19;153573;-62
2022/08/25 06:12:50;;;;;;;;;;;;;;;24.51;71.21;101394.53;7284464;19;152476;-62
2022/08/25 06:15:20;;;;;;;;;;;;;;;24.48;70.98;101388.72;7285265;19;153214;-62
2022/08/25 06:17:47;;;;;;;;;;;;;;;24.53;71.07;101371.63;7284005;19;154629;-62
2022/08/25 06:20:16;;;;;;;;;;;;;;;24.50;70.92;101381.56;7288435;19;151870;-61
2022/08/25 06:22:43;;;;;;;;;;;;;;;24.50;70.89;101378.75;7281871;19;154603;-62
2022/08/25 06:25:11;;;;;;;;;;;;;;;24.48;70.91;101369.78;7282630;19;152549;-62
2022/08/25 06:27:38;;;;;;;;;;;;;;;24.49;70.61;101362.13;7283798;19;153314;-61
2022/08/25 06:30:07;;;;;;;;;;;;;;;24.48;71.06;101358.47;7282568;19;154476;-61
2022/08/25 06:32:37;;;;;;;;;;;;;;;24.54;70.66;101353.50;7284827;19;153226;-62
2022/08/25 06:35:07;;;;;;;;;;;;;;;24.50;70.49;101358.13;7281355;19;153142;-61
2022/08/25 06:37:34;;;;;;;;;;;;;;;24.55;71.17;101383.41;7282791;19;152384;-61
2022/08/25 06:40:02;;;;;;;;;;;;;;;24.50;71.17;101389.22;7283870;19;151936;-62
2022/08/25 06:42:29;;;;;;;;;;;;;;;24.48;70.40;101411.31;7291130;19;153448;-62
2022/08/25 06:44:56;;;;;;;;;;;;;;;24.48;71.08;101431.94;7284425;19;153212;-61
2022/08/25 06:47:23;;;;;;;;;;;;;;;24.50;71.28;101437.25;7285099;19;153881;-62
2022/08/25 06:49:50;;;;;;;;;;;;;;;24.49;71.24;101441.22;7279824;19;153997;-62
2022/08/25 06:52:17;;;;;;;;;;;;;;;24.47;71.23;101438.72;7284113;19;152233;-62
2022/08/25 06:54:44;;;;;;;;;;;;;;;24.48;71.11;101431.94;7280811;19;153080;-61
2022/08/25 06:57:14;;;;;;;;;;;;;;;24.45;70.75;101424.09;7283060;19;152745;-62
2022/08/25 06:59:41;;;;;;;;;;;;;;;24.46;71.00;101431.41;7284156;19;152460;-63
2022/08/25 07:02:08;;;;;;;;;;;;;;;24.49;70.88;101446.88;7281040;19;152803;-61
2022/08/25 07:04:35;;;;;;;;;;;;;;;24.50;70.73;101466.31;7286116;19;152868;-61
2022/08/25 07:07:02;;;;;;;;;;;;;;;24.46;70.68;101475.78;7279863;19;152618;-61
2022/08/25 07:09:34;;;;;;;;;;;;;;;24.45;71.47;101474.09;7263321;19;153124;-62
2022/08/25 07:12:12;;;;;;;;;;;;;;;24.43;71.73;101470.78;7278990;19;153002;-61
2022/08/25 07:14:44;;;;;;;;;;;;;;;24.44;71.52;101467.59;7278387;19;152537;-63
2022/08/25 07:17:23;;;;;;;;;;;;;;;24.43;71.27;101453.81;7280534;19;153402;-61
2022/08/25 07:19:50;;;;;;;;;;;;;;;24.44;71.15;101452.69;7277327;19;152403;-62
2022/08/25 07:22:23;;;;;;;;;;;;;;;24.48;70.83;101437.59;7279699;19;153515;-61
2022/08/25 07:24:51;;;;;;;;;;;;;;;24.50;70.92;101437.25;7277073;19;154378;-62
2022/08/25 07:27:19;;;;;;;;;;;;;;;24.47;70.81;101435.06;7288087;19;152004;-62
2022/08/25 07:29:48;;;;;;;;;;;;;;;24.46;70.93;101445.53;7277118;19;154224;-62
2022/08/25 07:32:16;;;;;;;;;;;;;;;24.44;71.06;101439.34;7281187;19;152663;-62
2022/08/25 07:37:31;;;;;;;;;;;;;;;24.41;71.74;101439.19;7293590;19;153499;-62
2022/08/25 07:40:16;;;;;;;;;;;;;;;24.40;71.36;101444.00;7294794;19;153507;-62
2022/08/25 07:42:43;;;;;;;;;;;;;;;24.42;71.57;101443.69;7292569;19;153730;-62
2022/08/25 07:45:11;;;;;;;;;;;;;;;24.43;71.09;101434.91;7294385;19;154466;-61
2022/08/25 07:47:38;;;;;;;;;;;;;;;24.45;71.34;101421.25;7300975;19;152200;-62
2022/08/25 07:50:07;;;;;;;;;;;;;;;24.41;71.47;101406.13;7292781;19;153952;-61
2022/08/25 07:52:33;;;;;;;;;;;;;;;24.43;71.27;101403.81;7295087;19;152337;-62
2022/08/25 07:55:04;;;;;;;;;;;;;;;24.42;71.28;101396.50;7296867;19;152975;-62
2022/08/25 07:57:38;;;;;;;;;;;;;;;24.41;71.25;101408.94;7295060;19;154795;-62
2022/08/25 08:00:05;;;;;;;;;;;;;;;24.39;71.74;101410.44;7296255;19;151997;-62
2022/08/25 08:02:36;;;;;;;;;;;;;;;24.40;71.66;101415.75;7294290;19;152777;-62
2022/08/25 08:05:03;;;;;;;;;;;;;;;24.40;71.66;101424.22;7290941;19;153833;-62
2022/08/25 08:07:34;;;;;;;;;;;;;;;24.40;71.50;101448.81;7296473;19;151780;-61
2022/08/25 08:10:10;;;;;;;;;;;;;;;24.41;71.44;101464.59;7301921;19;153814;-61
2022/08/25 08:12:57;;;;;;;;;;;;;;;24.40;71.44;101445.97;7294028;19;152118;-61
2022/08/25 08:15:24;;;;;;;;;;;;;;;24.40;71.26;101458.13;7295860;19;153929;-62
2022/08/25 08:17:55;;;;;;;;;;;;;;;24.41;71.14;101473.91;7292752;19;154550;-61
2022/08/25 08:20:23;;;;;;;;;;;;;;;24.44;70.92;101478.09;7292510;19;152705;-62
2022/08/25 08:22:50;;;;;;;;;;;;;;;24.40;71.06;101474.22;7290320;19;152996;-61
2022/08/25 08:25:17;;;;;;;;;;;;;;;24.40;71.05;101469.41;7293588;19;154243;-62
2022/08/25 08:27:53;;;;;;;;;;;;;;;24.41;71.08;101458.94;7293891;19;152182;-62
2022/08/25 08:30:21;;;;;;;;;;;;;;;24.40;71.09;101462.94;7294915;19;152706;-61
2022/08/25 08:32:51;;;;;;;;;;;;;;;24.40;70.98;101465.75;7301072;19;154308;-62
2022/08/25 08:35:35;;;;;;;;;;;;;;;24.36;71.06;101463.59;7291797;19;153664;-62
2022/08/25 08:38:03;;;;;;;;;;;;;;;24.43;71.20;101459.47;7293191;19;153935;-61
2022/08/25 08:42:15;;;;;;;;;;;;;;;24.41;70.98;101448.50;7294270;19;152271;-62
2022/08/25 08:43:34;;;;;;;;;;;;;;;24.42;70.91;101461.47;7293115;19;153010;-62
2022/08/25 08:46:02;;;;;;;;;;;;;;;24.42;71.36;101454.97;7287384;19;154037;-62
2022/08/25 08:48:32;;;;;;;;;;;;;;;24.41;70.76;101462.63;7285893;19;152282;-62
2022/08/25 08:51:03;;;;;;;;;;;;;;;24.40;71.36;101471.41;7284033;19;153429;-61
2022/08/25 08:53:47;;;;;;;;;;;;;;;24.44;71.14;101473.25;7284494;19;152408;-61
2022/08/25 08:56:21;;;;;;;;;;;;;;;24.39;71.43;101476.25;7295185;19;152475;-61
2022/08/25 08:58:54;;;;;;;;;;;;;;;24.41;70.97;101462.63;7284578;19;153449;-61
2022/08/25 09:01:29;;;;;;;;;;;;;;;24.36;70.86;101463.59;7287825;19;152196;-61
2022/08/25 09:04:03;;;;;;;;;;;;;;;24.40;71.60;101468.56;7285586;19;152717;-62
2022/08/25 09:06:32;;;;;;;;;;;;;;;24.36;71.61;101476.88;7285918;19;153830;-62
2022/08/25 09:09:02;;;;;;;;;;;;;;;24.34;71.43;101477.22;7285565;19;152624;-62
2022/08/25 09:11:50;;;;;;;;;;;;;;;24.36;71.44;101477.69;7288184;19;153181;-61
2022/08/25 09:14:17;;;;;;;;;;;;;;;24.34;71.22;101482.84;7285401;19;153242;-62
2022/08/25 09:16:54;;;;;;;;;;;;;;;24.38;71.31;101487.84;7287670;19;152548;-62
2022/08/25 09:19:27;;;;;;;;;;;;;;;24.38;71.10;101482.19;7289852;19;152087;-62
2022/08/25 09:22:20;;;;;;;;;;;;;;;24.35;71.20;101483.66;7287194;19;151916;-61
2022/08/25 09:25:10;;;;;;;;;;;;;;;24.36;71.15;101505.94;7284042;19;154679;-62
2022/08/25 09:27:43;;;;;;;;;;;;;;;24.33;70.95;101478.34;7284580;19;153854;-61
2022/08/25 09:30:12;;;;;;;;;;;;;;;24.34;71.09;101457.44;7285652;19;152055;-61
2022/08/25 09:32:41;;;;;;;;;;;;;;;24.33;71.34;101481.19;7284687;19;153457;-63
2022/08/25 09:35:23;;;;;;;;;;;;;;;24.35;71.71;101492.13;7282505;19;153327;-62
2022/08/25 09:38:00;;;;;;;;;;;;;;;24.31;71.47;101465.69;7285032;19;152525;-61
2022/08/25 09:40:29;;;;;;;;;;;;;;;24.30;71.46;101449.94;7285968;19;152707;-61
2022/08/25 09:42:58;;;;;;;;;;;;;;;24.35;71.34;101467.56;7288423;19;154229;-61
2022/08/25 09:45:38;;;;;;;;;;;;;;;24.35;70.97;101470.38;7284946;19;153420;-61
2022/08/25 09:48:21;;;;;;;;;;;;;;;24.35;70.93;101459.09;7284376;19;154200;-61
2022/08/25 09:50:50;;;;;;;;;;;;;;;24.34;70.88;101463.09;7282642;19;152746;-62
2022/08/25 09:53:17;;;;;;;;;;;;;;;24.39;70.97;101464.94;7284664;19;153149;-62
2022/08/25 09:55:54;;;;;;;;;;;;;;;24.31;71.05;101468.53;7283748;19;154584;-62
2022/08/25 09:58:26;;;;;;;;;;;;;;;24.30;71.43;101453.56;7284850;19;152122;-61
2022/08/25 10:01:11;;;;;;;;;;;;;;;24.39;70.97;101461.28;7286026;19;153086;-62
2022/08/25 10:03:55;;;;;;;;;;;;;;;24.33;71.26;101466.22;7288616;19;154381;-62
2022/08/25 10:06:23;;;;;;;;;;;;;;;24.35;71.76;101461.06;7280712;19;152607;-61
2022/08/25 10:08:50;;;;;;;;;;;;;;;24.31;71.31;101449.59;7280903;19;152585;-63
2022/08/25 10:11:29;;;;;;;;;;;;;;;24.35;71.01;101447.78;7286188;19;152430;-62
2022/08/25 10:14:04;;;;;;;;;;;;;;;24.29;71.22;101446.28;7283883;19;152675;-61
2022/08/25 10:16:31;;;;;;;;;;;;;;;24.31;71.55;101455.25;7286832;19;153272;-62
2022/08/25 10:19:07;;;;;;;;;;;;;;;24.36;71.56;101462.75;7282882;19;153032;-62
2022/08/25 10:21:34;;;;;;;;;;;;;;;24.30;71.69;101462.03;7284479;19;152776;-62
2022/08/25 10:24:04;;;;;;;;;;;;;;;24.29;71.68;101462.38;7281831;19;154684;-61
2022/08/25 10:26:51;;;;;;;;;;;;;;;24.32;71.68;101462.56;7293321;19;152298;-61
2022/08/25 10:29:18;;;;;;;;;;;;;;;24.29;71.55;101460.38;7280715;19;154063;-62
2022/08/25 10:31:54;;;;;;;;;;;;;;;24.29;71.62;101449.09;7286751;19;152254;-62
2022/08/25 10:34:33;;;;;;;;;;;;;;;24.30;72.13;101452.75;7281276;19;153909;-62
2022/08/25 10:37:14;;;;;;;;;;;;;;;24.36;71.85;101463.59;7285827;19;153546;-62
2022/08/25 10:39:57;;;;;;;;;;;;;;;24.30;71.75;101459.22;7283532;19;152284;-61
2022/08/25 10:42:28;;;;;;;;;;;;;;;24.29;72.28;101453.91;7283614;19;153235;-61
2022/08/25 10:47:47;;;;;;;;;;;;;;;24.29;72.09;101436.97;7286016;19;152150;-61
2022/08/25 10:50:13;;;;;;;;;;;;;;;24.25;72.35;101436.78;7288503;19;152721;-62
2022/08/25 10:52:50;;;;;;;;;;;;;;;24.29;72.24;101426.50;7284133;19;152168;-62
2022/08/25 10:55:36;;;;;;;;;;;;;;;24.26;72.46;101421.47;7282238;19;153065;-61
2022/08/25 10:58:05;;;;;;;;;;;;;;;24.28;72.31;101416.34;7282780;19;153985;-62
2022/08/25 11:00:42;;;;;;;;;;;;;;;24.28;73.05;101410.69;7283723;19;151903;-62
2022/08/25 11:03:28;;;;;;;;;;;;;;;24.28;72.68;101401.38;7279982;19;152972;-61
2022/08/25 11:06:10;;;;;;;;;;;;;;;24.29;72.57;101394.59;7277439;19;154616;-63
2022/08/25 11:08:39;;;;;;;;;;;;;;;24.28;72.87;101390.94;7278539;19;153662;-62
2022/08/25 11:11:10;;;;;;;;;;;;;;;24.29;73.03;101380.47;7284318;19;152778;-62
2022/08/25 11:13:46;;;;;;;;;;;;;;;24.30;72.59;101380.13;7290931;19;153950;-61
2022/08/25 11:16:15;;;;;;;;;;;;;;;24.29;72.82;101370.00;7285045;19;153485;-62
2022/08/25 11:19:01;;;;;;;;;;;;;;;24.30;72.96;101362.38;7282469;19;154585;-61
2022/08/25 11:21:50;;;;;;;;;;;;;;;24.30;72.34;101356.72;7283916;19;152203;-62
2022/08/25 11:24:17;;;;;;;;;;;;;;;24.30;73.02;101357.53;7282459;19;153457;-61
2022/08/25 11:26:48;;;;;;;;;;;;;;;24.30;72.98;101345.44;7282834;19;153940;-61
2022/08/25 11:29:16;;;;;;;;;;;;;;;24.29;72.96;101350.25;7281289;19;152174;-61
2022/08/25 11:31:44;;;;;;;;;;;;;;;24.31;73.39;101364.84;7283925;19;152218;-62
2022/08/25 11:34:18;;;;;;;;;;;;;;;24.33;73.29;101381.50;7278094;19;153872;-61
2022/08/25 11:36:50;;;;;;;;;;;;;;;24.41;72.87;101431.53;7289683;19;151692;-61
2022/08/25 11:39:36;;;;;;;;;;;;;;;24.43;72.46;101470.78;7280216;19;154802;-61
2022/08/25 11:42:21;;;;;;;;;;;;;;;24.40;72.38;101474.22;7281947;19;152260;-61
2022/08/25 11:44:57;;;;;;;;;;;;;;;24.44;72.11;101466.81;7281778;19;152299;-61
2022/08/25 11:47:33;;;;;;;;;;;;;;;24.40;72.72;101466.59;7278900;19;154214;-62
2022/08/25 11:50:05;;;;;;;;;;;;;;;24.39;72.87;101459.28;7281309;19;152393;-61
2022/08/25 11:52:32;;;;;;;;;;;;;;;24.39;72.87;101462.13;7282743;19;152506;-61
2022/08/25 11:55:10;;;;;;;;;;;;;;;24.43;72.38;101476.44;7280819;19;154792;-61
2022/08/25 11:57:38;;;;;;;;;;;;;;;24.46;72.56;101470.13;7281883;19;153005;-61
2022/08/25 12:00:12;;;;;;;;;;;;;;;24.44;72.96;101473.25;7289584;19;153306;-61
2022/08/25 12:02:43;;;;;;;;;;;;;;;24.51;72.54;101464.34;7281292;19;152153;-61
2022/08/25 12:05:38;;;;;;;;;;;;;;;24.53;72.20;101464.88;7277682;19;153790;-61
2022/08/25 12:10:52;;;;;;;;;;;;;;;24.40;73.55;101474.22;7281217;19;152493;-61
2022/08/25 12:13:48;;;;;;;;;;;;;;;24.45;72.90;101483.41;7280588;19;153572;-60
2022/08/25 12:16:39;;;;;;;;;;;;;;;24.43;72.85;101487.72;7276970;19;154405;-61
2022/08/25 12:19:25;;;;;;;;;;;;;;;24.48;72.98;101498.91;7277376;19;152617;-61
2022/08/25 12:22:14;;;;;;;;;;;;;;;24.41;72.98;101490.88;7293191;19;152655;-61
2022/08/25 12:24:40;;;;;;;;;;;;;;;24.50;72.67;101491.75;7284731;19;153420;-61
2022/08/25 12:27:29;;;;;;;;;;;;;;;24.50;71.91;101488.94;7286960;19;154772;-63
2022/08/25 12:30:10;;;;;;;;;;;;;;;24.48;72.79;101487.59;7287226;19;154227;-60
2022/08/25 12:33:02;;;;;;;;;;;;;;;24.45;72.66;101485.41;7271759;19;152231;-61
2022/08/25 12:35:40;;;;;;;;;;;;;;;24.48;72.86;101479.13;7253280;19;158044;-60
2022/08/25 12:38:14;;;;;;;;;;;;;;;24.52;72.67;101480.97;7277340;19;153238;-62
2022/08/25 12:40:42;;;;;;;;;;;;;;;24.50;72.33;101488.94;7280936;19;152340;-63
2022/08/25 12:43:28;;;;;;;;;;;;;;;24.57;72.17;101491.31;7283695;19;154497;-64
2022/08/25 12:46:28;;;;;;;;;;;;;;;24.53;72.65;101498.78;7288453;19;153822;-64
2022/08/25 12:48:59;;;;;;;;;;;;;;;24.65;71.50;101490.53;7283542;19;153696;-63
2022/08/25 12:51:27;;;;;;;;;;;;;;;24.58;71.84;101493.78;7280992;19;155825;-62
2022/08/25 12:54:13;;;;;;;;;;;;;;;24.59;72.01;101495.47;7284160;19;152419;-62
2022/08/25 12:56:46;;;;;;;;;;;;;;;24.63;71.39;101493.66;7284228;19;153692;-63
2022/08/25 12:59:21;;;;;;;;;;;;;;;24.65;71.24;101484.88;7283402;19;153259;-64